Time;durP1;ratioP1;P1;durP2;ratioP2;P2;SDS_P1;SDS_P2;PMS_P1;PMS_P2;Temp;Humidity;BMP_temperature;BMP_pressure;BME280_temperature;BME280_humidity;BME280_pressure;Samples;Min_cycle;Max_cycle;Signal;HPM_P1;HPM_P2
2023/07/22 00:02:22;;;;;;;2.95;1.63;;;14.20;99.90;;;;;;4972008;28;20045;-89
2023/07/22 00:04:49;;;;;;;3.55;1.92;;;14.10;99.90;;;;;;4952653;28;20047;-84
2023/07/22 00:07:15;;;;;;;2.80;1.98;;;14.10;99.90;;;;;;4982928;28;20372;-89
2023/07/22 00:09:43;;;;;;;4.68;2.17;;;14.00;99.90;;;;;;4965971;28;20069;-88
2023/07/22 00:12:09;;;;;;;2.80;1.40;;;14.00;99.90;;;;;;4976304;28;20177;-84
2023/07/22 00:14:41;;;;;;;3.50;1.92;;;14.00;99.90;;;;;;4950265;28;20063;-88
2023/07/22 00:17:07;;;;;;;4.13;2.13;;;14.00;99.90;;;;;;4970651;28;20513;-90
2023/07/22 00:19:33;;;;;;;4.60;2.15;;;14.00;99.90;;;;;;4956795;28;20030;-89
2023/07/22 00:21:59;;;;;;;3.33;1.95;;;13.90;99.90;;;;;;4975206;28;20045;-89
2023/07/22 00:24:25;;;;;;;3.10;1.92;;;13.90;99.90;;;;;;4967843;28;20042;-89
2023/07/22 00:26:51;;;;;;;3.65;2.05;;;13.90;99.90;;;;;;4971895;28;20034;-89
2023/07/22 00:29:17;;;;;;;3.63;1.73;;;13.80;99.90;;;;;;4972070;28;20553;-90
2023/07/22 00:31:43;;;;;;;2.70;1.90;;;13.80;99.90;;;;;;4970954;28;20058;-89
2023/07/22 00:34:09;;;;;;;3.50;2.03;;;13.70;99.90;;;;;;4954431;28;20042;-83
2023/07/22 00:36:34;;;;;;;4.57;2.78;;;13.70;99.90;;;;;;4984275;28;20562;-89
2023/07/22 00:39:01;;;;;;;4.75;2.15;;;13.60;99.90;;;;;;4975457;28;20042;-90
2023/07/22 00:41:27;;;;;;;4.10;1.95;;;13.60;99.90;;;;;;4953852;28;20284;-85
2023/07/22 00:43:53;;;;;;;3.90;2.15;;;13.70;99.90;;;;;;4959780;28;20089;-90
2023/07/22 00:46:18;;;;;;;3.28;1.77;;;13.60;99.90;;;;;;4969766;28;20038;-84
2023/07/22 00:48:45;;;;;;;2.60;1.60;;;13.50;99.90;;;;;;4954279;28;20076;-89
2023/07/22 00:51:11;;;;;;;3.42;2.03;;;13.50;99.90;;;;;;4985536;28;20038;-87
2023/07/22 00:53:36;;;;;;;4.13;2.17;;;13.40;99.90;;;;;;4960819;28;20038;-89
2023/07/22 00:56:02;;;;;;;3.10;1.98;;;13.40;99.90;;;;;;4967624;28;20034;-85
2023/07/22 00:58:28;;;;;;;3.95;2.20;;;13.40;99.90;;;;;;4967104;28;20042;-87
2023/07/22 01:00:54;;;;;;;5.82;2.53;;;13.40;99.90;;;;;;4986689;28;20038;-87
2023/07/22 01:03:20;;;;;;;3.92;2.28;;;13.40;99.90;;;;;;4988231;28;20053;-90
2023/07/22 01:05:47;;;;;;;3.90;2.55;;;13.40;99.90;;;;;;4954659;28;20056;-89
2023/07/22 01:08:13;;;;;;;4.45;2.88;;;13.40;99.90;;;;;;4974628;28;20045;-86
2023/07/22 01:10:39;;;;;;;5.50;3.15;;;13.40;99.90;;;;;;4973907;28;20039;-90
2023/07/22 01:13:05;;;;;;;6.25;3.35;;;13.30;99.90;;;;;;4957884;28;20050;-89
2023/07/22 01:15:32;;;;;;;4.60;2.92;;;13.30;99.90;;;;;;4956579;28;20125;-90
2023/07/22 01:18:01;;;;;;;4.90;3.47;;;13.30;99.90;;;;;;4958440;28;20395;-89
2023/07/22 01:20:30;;;;;;;4.25;2.25;;;13.30;99.90;;;;;;4972122;28;20479;-83
2023/07/22 01:22:56;;;;;;;5.18;2.70;;;13.50;99.90;;;;;;4968782;28;20495;-88
2023/07/22 01:25:23;;;;;;;4.93;3.15;;;13.50;99.90;;;;;;4953059;28;20483;-87
2023/07/22 01:27:52;;;;;;;5.35;3.00;;;13.50;99.90;;;;;;4972316;28;20050;-88
2023/07/22 01:30:19;;;;;;;4.78;3.13;;;13.60;99.90;;;;;;4972489;28;20372;-86
2023/07/22 01:32:46;;;;;;;5.43;3.55;;;13.50;99.90;;;;;;4984812;28;20034;-88
2023/07/22 01:35:12;;;;;;;4.07;3.15;;;13.60;99.90;;;;;;4957295;28;20038;-88
2023/07/22 01:37:37;;;;;;;4.32;2.55;;;13.70;99.90;;;;;;4972981;28;20041;-86
2023/07/22 01:40:12;;;;;;;5.30;3.15;;;13.60;99.90;;;;;;4959075;28;20499;-87
2023/07/22 01:42:39;;;;;;;5.80;3.50;;;13.70;99.90;;;;;;4988794;28;20037;-87
2023/07/22 01:45:07;;;;;;;6.13;3.83;;;13.70;99.90;;;;;;4974604;28;20414;-88
2023/07/22 01:47:37;;;;;;;5.05;3.42;;;13.70;99.90;;;;;;4957520;28;20058;-89
2023/07/22 01:50:06;;;;;;;5.85;3.45;;;13.70;99.90;;;;;;4962485;28;20049;-89
2023/07/22 01:52:32;;;;;;;6.50;3.80;;;13.70;99.90;;;;;;4954242;28;20051;-89
2023/07/22 01:54:57;;;;;;;5.15;3.55;;;13.80;99.90;;;;;;4956971;28;20490;-89
2023/07/22 01:57:23;;;;;;;5.22;3.75;;;13.80;99.90;;;;;;4973889;28;20038;-89
2023/07/22 01:59:49;;;;;;;5.88;4.10;;;13.70;99.90;;;;;;4964824;28;20454;-88
2023/07/22 02:02:14;;;;;;;5.93;3.65;;;13.60;99.90;;;;;;4954134;28;20069;-89
2023/07/22 02:04:40;;;;;;;5.32;3.40;;;13.70;99.90;;;;;;4978642;28;20038;-84
2023/07/22 02:07:06;;;;;;;5.88;3.80;;;13.70;99.90;;;;;;4971020;28;20038;-86
2023/07/22 02:09:35;;;;;;;8.02;4.53;;;13.70;99.90;;;;;;4952105;28;20031;-82
2023/07/22 02:12:01;;;;;;;5.65;4.22;;;13.60;99.90;;;;;;4954134;28;20117;-89
2023/07/22 02:14:27;;;;;;;7.18;4.05;;;13.60;99.90;;;;;;4957199;28;20445;-87
2023/07/22 02:16:53;;;;;;;6.18;4.03;;;13.60;99.90;;;;;;4979076;28;20030;-89
2023/07/22 02:19:18;;;;;;;7.30;4.53;;;13.50;99.90;;;;;;4967073;28;20031;-85
2023/07/22 02:21:44;;;;;;;6.95;4.40;;;13.40;99.90;;;;;;4958500;28;20050;-88
2023/07/22 02:24:10;;;;;;;5.75;4.47;;;13.40;99.90;;;;;;4985720;28;20091;-87
2023/07/22 02:26:36;;;;;;;6.53;4.60;;;13.40;99.90;;;;;;4954750;28;20092;-88
2023/07/22 02:29:02;;;;;;;7.22;4.85;;;13.30;99.90;;;;;;4983797;28;20045;-88
2023/07/22 02:31:28;;;;;;;6.88;4.72;;;13.30;99.90;;;;;;4969556;28;20039;-89
2023/07/22 02:33:53;;;;;;;7.25;4.57;;;13.30;99.90;;;;;;4953050;28;20043;-85
2023/07/22 02:36:19;;;;;;;6.53;4.82;;;13.30;99.90;;;;;;4952694;28;20395;-88
2023/07/22 02:38:45;;;;;;;7.90;5.10;;;13.30;99.90;;;;;;4966706;28;20034;-89
2023/07/22 02:41:12;;;;;;;7.03;5.05;;;13.20;99.90;;;;;;4962339;28;20364;-88
2023/07/22 02:43:40;;;;;;;7.22;4.90;;;13.20;99.90;;;;;;4962878;28;20049;-88
2023/07/22 02:46:07;;;;;;;7.40;4.57;;;13.10;99.90;;;;;;4976897;28;20042;-88
2023/07/22 02:48:34;;;;;;;6.85;4.60;;;13.20;99.90;;;;;;4969376;28;20386;-86
2023/07/22 02:51:04;;;;;;;7.07;4.45;;;13.20;99.90;;;;;;4957036;28;20062;-87
2023/07/22 02:53:31;;;;;;;8.20;5.65;;;13.20;99.90;;;;;;4984396;28;20089;-88
2023/07/22 02:55:57;;;;;;;7.75;5.10;;;13.20;99.90;;;;;;4972252;28;20478;-89
2023/07/22 02:58:23;;;;;;;7.65;5.07;;;13.10;99.90;;;;;;4971615;28;20457;-89
2023/07/22 03:00:49;;;;;;;6.57;4.80;;;13.10;99.90;;;;;;4951862;28;20042;-88
2023/07/22 03:03:14;;;;;;;7.70;5.28;;;13.00;99.90;;;;;;4956926;28;20133;-88
2023/07/22 03:05:40;;;;;;;9.13;5.47;;;13.00;99.90;;;;;;4962563;28;20036;-89
2023/07/22 03:08:06;;;;;;;6.97;4.95;;;13.00;99.90;;;;;;4954840;28;20065;-88
2023/07/22 03:10:33;;;;;;;8.55;5.50;;;13.00;99.90;;;;;;4955793;28;20030;-87
2023/07/22 03:12:59;;;;;;;9.30;6.10;;;12.90;99.90;;;;;;4948819;28;20252;-89
2023/07/22 03:15:26;;;;;;;6.75;5.00;;;12.90;99.90;;;;;;4971387;28;20065;-88
2023/07/22 03:17:52;;;;;;;8.70;6.00;;;12.90;99.90;;;;;;4955356;28;20045;-89
2023/07/22 03:20:19;;;;;;;8.00;5.95;;;12.90;99.90;;;;;;4966585;28;20100;-83
2023/07/22 03:22:45;;;;;;;9.30;6.35;;;12.90;99.90;;;;;;4967502;28;20034;-88
2023/07/22 03:25:13;;;;;;;7.95;5.60;;;12.80;99.90;;;;;;4973081;28;20387;-87
2023/07/22 03:27:39;;;;;;;8.40;5.78;;;12.80;99.90;;;;;;4967764;28;20482;-86
2023/07/22 03:30:07;;;;;;;8.05;5.65;;;12.80;99.90;;;;;;4971554;28;20043;-87
2023/07/22 03:32:33;;;;;;;9.05;5.60;;;12.80;99.90;;;;;;4958327;28;20038;-89
2023/07/22 03:35:01;;;;;;;8.00;5.97;;;12.90;99.90;;;;;;4951507;28;20057;-88
2023/07/22 03:37:27;;;;;;;7.57;5.75;;;12.90;99.90;;;;;;4968567;28;20066;-89
2023/07/22 03:39:53;;;;;;;8.75;6.20;;;12.90;99.90;;;;;;4972277;28;20539;-88
2023/07/22 03:42:19;;;;;;;8.32;6.03;;;12.90;99.90;;;;;;4970734;28;20050;-89
2023/07/22 03:44:45;;;;;;;7.72;5.60;;;12.80;99.90;;;;;;4953228;28;20746;-88
2023/07/22 03:47:10;;;;;;;9.10;5.43;;;12.90;99.90;;;;;;4979131;28;20487;-88
2023/07/22 03:49:36;;;;;;;7.75;5.50;;;12.90;99.90;;;;;;4970027;28;20045;-86
2023/07/22 03:52:02;;;;;;;7.80;5.55;;;12.80;99.90;;;;;;4970612;28;20439;-88
2023/07/22 03:54:28;;;;;;;10.95;5.95;;;12.90;99.90;;;;;;4966806;28;20106;-87
2023/07/22 03:56:55;;;;;;;8.93;5.75;;;12.80;99.90;;;;;;4970477;28;20045;-87
2023/07/22 03:59:20;;;;;;;10.10;6.22;;;12.90;99.90;;;;;;4952801;28;20046;-89
2023/07/22 04:01:47;;;;;;;10.15;6.10;;;12.90;99.90;;;;;;4953880;28;20031;-88
2023/07/22 04:04:13;;;;;;;8.35;6.13;;;12.90;99.90;;;;;;4955669;28;20050;-89
2023/07/22 04:06:39;;;;;;;8.18;5.63;;;12.90;99.90;;;;;;4954756;28;20370;-86
2023/07/22 04:09:04;;;;;;;8.52;5.65;;;12.90;99.90;;;;;;4953900;28;20502;-88
2023/07/22 04:11:30;;;;;;;8.38;6.05;;;13.00;99.90;;;;;;4953732;28;20129;-85
2023/07/22 04:13:56;;;;;;;8.52;5.97;;;12.90;99.90;;;;;;4971199;28;20402;-89
2023/07/22 04:16:23;;;;;;;9.82;6.28;;;12.90;99.90;;;;;;4954375;28;20034;-89
2023/07/22 04:18:49;;;;;;;7.18;5.13;;;13.00;99.90;;;;;;4968816;28;20102;-89
2023/07/22 04:21:15;;;;;;;9.70;5.55;;;13.00;99.90;;;;;;4952245;28;20437;-89
2023/07/22 04:23:40;;;;;;;8.50;5.63;;;13.10;99.90;;;;;;4971209;28;20101;-87
2023/07/22 04:26:07;;;;;;;8.23;5.30;;;13.00;99.90;;;;;;4970736;28;20038;-89
2023/07/22 04:28:34;;;;;;;7.90;5.63;;;13.10;99.90;;;;;;4954769;28;20038;-82
2023/07/22 04:31:00;;;;;;;9.02;5.68;;;13.10;99.90;;;;;;4959896;28;20041;-89
2023/07/22 04:33:27;;;;;;;7.55;5.18;;;13.10;99.90;;;;;;4960661;28;20034;-89
2023/07/22 04:35:58;;;;;;;9.18;5.15;;;13.20;99.90;;;;;;4955865;28;20122;-88
2023/07/22 04:38:24;;;;;;;9.70;5.60;;;13.20;99.90;;;;;;4966011;28;20034;-89
2023/07/22 04:40:50;;;;;;;9.93;5.57;;;13.20;99.90;;;;;;4965544;28;20038;-88
2023/07/22 04:43:16;;;;;;;9.63;6.00;;;13.30;99.90;;;;;;4987210;28;20054;-89
2023/07/22 04:45:45;;;;;;;9.20;5.63;;;13.30;99.90;;;;;;4969816;28;20039;-87
2023/07/22 04:48:11;;;;;;;10.20;5.97;;;13.40;99.90;;;;;;4989440;28;20034;-89
2023/07/22 04:50:40;;;;;;;12.63;5.45;;;13.40;99.90;;;;;;4988430;28;20045;-88
2023/07/22 04:53:07;;;;;;;10.73;6.57;;;13.50;99.90;;;;;;4979426;28;20058;-88
2023/07/22 04:55:33;;;;;;;8.07;5.53;;;13.70;99.90;;;;;;4974408;28;20069;-89
2023/07/22 04:57:58;;;;;;;8.68;5.78;;;13.80;99.90;;;;;;4971449;28;20063;-88
2023/07/22 05:00:24;;;;;;;9.10;5.97;;;13.90;99.90;;;;;;4978903;28;20175;-88
2023/07/22 05:02:52;;;;;;;14.77;6.80;;;13.90;99.90;;;;;;4972170;28;20026;-90
2023/07/22 05:05:17;;;;;;;8.85;5.65;;;14.00;99.90;;;;;;4973895;28;20085;-85
2023/07/22 05:07:43;;;;;;;10.98;6.30;;;14.10;99.90;;;;;;4953818;28;20062;-88
2023/07/22 05:10:12;;;;;;;12.45;7.15;;;14.10;99.90;;;;;;4957790;28;20053;-84
2023/07/22 05:12:41;;;;;;;9.57;6.35;;;14.00;99.90;;;;;;4957452;28;20058;-86
2023/07/22 05:15:09;;;;;;;10.48;6.60;;;14.10;99.90;;;;;;4973080;28;20041;-83
2023/07/22 05:17:35;;;;;;;8.07;5.95;;;14.10;99.90;;;;;;4961642;28;20050;-81
2023/07/22 05:20:00;;;;;;;12.10;7.20;;;14.10;99.90;;;;;;4973858;28;20200;-88
2023/07/22 05:22:26;;;;;;;11.90;7.68;;;14.10;99.90;;;;;;4958811;28;20133;-87
2023/07/22 05:24:52;;;;;;;10.65;6.88;;;14.20;99.90;;;;;;4974156;28;20054;-88
2023/07/22 05:27:18;;;;;;;9.70;6.78;;;14.30;99.90;;;;;;4985654;28;20542;-83
2023/07/22 05:29:44;;;;;;;11.00;7.20;;;14.30;99.90;;;;;;4974926;28;20038;-87
2023/07/22 05:32:10;;;;;;;9.98;7.03;;;14.30;99.90;;;;;;4966929;28;20034;-84
2023/07/22 05:34:36;;;;;;;9.73;6.85;;;14.40;99.90;;;;;;4988283;28;20039;-87
2023/07/22 05:37:02;;;;;;;11.23;7.13;;;14.40;99.90;;;;;;4973165;28;20039;-82
2023/07/22 05:39:27;;;;;;;12.77;7.85;;;14.40;99.90;;;;;;4981285;28;20045;-88
2023/07/22 05:41:53;;;;;;;9.98;6.45;;;14.50;99.90;;;;;;4970549;28;20085;-88
2023/07/22 05:44:19;;;;;;;10.70;6.88;;;14.60;99.90;;;;;;4992043;28;20050;-89
2023/07/22 05:46:45;;;;;;;9.75;6.00;;;14.70;99.90;;;;;;4953842;28;20038;-88
2023/07/22 05:49:11;;;;;;;10.00;6.80;;;14.80;99.90;;;;;;4977329;28;20042;-88
2023/07/22 05:51:37;;;;;;;9.20;6.50;;;14.80;99.90;;;;;;4971833;28;20492;-88
2023/07/22 05:54:03;;;;;;;8.77;6.07;;;14.90;99.90;;;;;;4970970;28;20039;-88
2023/07/22 05:56:28;;;;;;;10.98;6.53;;;15.00;99.90;;;;;;4956681;28;20044;-86
2023/07/22 05:58:54;;;;;;;9.90;5.28;;;15.10;99.90;;;;;;4972469;28;20038;-88
2023/07/22 06:01:20;;;;;;;9.23;5.47;;;15.20;99.90;;;;;;4972880;28;20169;-89
2023/07/22 06:03:45;;;;;;;8.38;6.05;;;15.20;99.90;;;;;;4958230;28;20045;-85
2023/07/22 06:06:11;;;;;;;11.43;6.88;;;15.30;99.90;;;;;;4951922;28;20096;-88
2023/07/22 06:08:37;;;;;;;11.05;6.63;;;15.30;99.90;;;;;;4972704;28;20554;-85
2023/07/22 06:11:03;;;;;;;10.25;7.35;;;15.30;99.90;;;;;;4985920;28;20042;-86
2023/07/22 06:13:29;;;;;;;9.88;5.88;;;15.20;99.90;;;;;;4986868;28;20043;-83
2023/07/22 06:15:55;;;;;;;9.98;6.85;;;15.20;99.90;;;;;;4979409;28;20435;-88
2023/07/22 06:18:21;;;;;;;10.63;6.70;;;15.30;99.90;;;;;;4968192;28;20043;-88
2023/07/22 06:20:47;;;;;;;11.20;7.05;;;15.30;99.90;;;;;;4973351;28;20041;-87
2023/07/22 06:23:12;;;;;;;12.18;7.53;;;15.80;99.90;;;;;;4986687;28;20462;-85
2023/07/22 06:25:38;;;;;;;9.50;6.93;;;16.20;99.90;;;;;;4987141;28;20042;-87
2023/07/22 06:28:04;;;;;;;11.02;7.22;;;16.70;99.90;;;;;;4980648;28;20084;-88
2023/07/22 06:30:30;;;;;;;12.13;8.20;;;17.20;99.90;;;;;;4985593;28;20074;-87
2023/07/22 06:32:56;;;;;;;10.80;7.18;;;17.70;99.90;;;;;;4972491;28;20065;-83
2023/07/22 06:35:22;;;;;;;8.32;5.78;;;17.70;99.90;;;;;;4986003;28;20039;-87
2023/07/22 06:37:47;;;;;;;11.40;7.35;;;17.30;99.90;;;;;;4954509;28;20027;-88
2023/07/22 06:40:13;;;;;;;10.60;7.22;;;17.20;99.90;;;;;;4964317;28;20407;-87
2023/07/22 06:42:39;;;;;;;12.68;6.90;;;17.10;99.90;;;;;;4966792;28;20382;-87
2023/07/22 06:45:05;;;;;;;8.30;6.18;;;17.20;99.90;;;;;;4956646;28;20061;-86
2023/07/22 06:47:31;;;;;;;13.13;8.55;;;17.20;99.90;;;;;;4972889;28;20050;-81
2023/07/22 06:49:57;;;;;;;12.38;7.95;;;17.10;99.90;;;;;;4970389;28;20397;-85
2023/07/22 06:52:23;;;;;;;12.25;7.05;;;17.30;99.90;;;;;;4952824;28;20141;-84
2023/07/22 06:54:49;;;;;;;12.85;8.38;;;17.30;99.90;;;;;;4971271;28;20125;-87
2023/07/22 06:57:15;;;;;;;10.48;7.07;;;17.40;99.90;;;;;;4971462;28;20038;-85
2023/07/22 06:59:41;;;;;;;11.55;7.78;;;17.30;99.90;;;;;;4972107;28;20039;-86
2023/07/22 07:02:06;;;;;;;11.70;7.35;;;17.30;99.90;;;;;;4954283;28;20129;-84
2023/07/22 07:04:32;;;;;;;11.07;6.50;;;17.60;99.90;;;;;;4970363;28;20125;-88
2023/07/22 07:06:59;;;;;;;12.80;9.00;;;18.20;99.90;;;;;;4988100;28;20398;-82
2023/07/22 07:09:25;;;;;;;12.43;8.07;;;18.50;99.90;;;;;;4960133;28;20129;-87
2023/07/22 07:11:51;;;;;;;15.13;10.82;;;19.00;99.90;;;;;;4949858;28;20475;-87
2023/07/22 07:14:17;;;;;;;12.88;8.25;;;18.70;99.90;;;;;;4969344;28;20089;-87
2023/07/22 07:16:43;;;;;;;10.95;6.95;;;18.80;99.90;;;;;;4955418;28;20034;-88
2023/07/22 07:19:09;;;;;;;12.75;7.90;;;18.60;99.90;;;;;;4977484;28;20125;-86
2023/07/22 07:21:38;;;;;;;10.60;7.73;;;18.40;99.90;;;;;;4955060;28;20034;-83
2023/07/22 07:24:04;;;;;;;11.27;7.95;;;18.40;99.90;;;;;;4986791;28;20497;-82
2023/07/22 07:26:30;;;;;;;15.32;10.63;;;18.00;99.90;;;;;;4950541;28;20364;-87
2023/07/22 07:28:56;;;;;;;10.20;7.82;;;17.70;99.90;;;;;;4972166;28;20422;-86
2023/07/22 07:31:22;;;;;;;10.48;7.32;;;18.10;99.90;;;;;;4984943;28;20022;-85
2023/07/22 07:33:48;;;;;;;8.95;5.78;;;18.30;99.90;;;;;;4955386;28;20062;-83
2023/07/22 07:36:14;;;;;;;8.68;5.22;;;18.40;99.90;;;;;;4967496;28;20143;-87
2023/07/22 07:38:40;;;;;;;15.27;10.27;;;18.40;99.90;;;;;;4956536;28;20058;-86
2023/07/22 07:41:11;;;;;;;12.63;8.60;;;18.00;99.90;;;;;;4955793;28;20073;-87
2023/07/22 07:43:38;;;;;;;20.80;11.75;;;18.10;99.90;;;;;;4971974;28;20050;-87
2023/07/22 07:46:17;;;;;;;11.52;8.60;;;18.20;99.90;;;;;;4961357;28;20126;-87
2023/07/22 07:48:44;;;;;;;9.93;6.70;;;18.70;99.90;;;;;;4953414;28;20031;-87
2023/07/22 07:51:12;;;;;;;8.07;5.60;;;19.20;99.90;;;;;;4956795;28;20084;-86
2023/07/22 07:53:38;;;;;;;9.93;6.90;;;19.90;99.90;;;;;;4974883;28;20034;-86
2023/07/22 07:56:04;;;;;;;9.23;5.05;;;20.00;99.90;;;;;;4972667;28;20435;-83
2023/07/22 07:58:30;;;;;;;9.07;5.57;;;19.90;99.90;;;;;;4987321;28;20081;-87
2023/07/22 08:00:56;;;;;;;6.70;5.03;;;19.50;99.90;;;;;;4973440;28;20039;-87
2023/07/22 08:03:22;;;;;;;11.65;7.70;;;19.60;99.90;;;;;;4968510;28;20073;-86
2023/07/22 08:05:48;;;;;;;14.45;8.68;;;19.40;99.90;;;;;;4972962;28;20046;-85
2023/07/22 08:08:14;;;;;;;8.82;5.80;;;19.60;99.90;;;;;;4991260;28;20085;-86
2023/07/22 08:10:40;;;;;;;6.80;4.30;;;20.30;99.90;;;;;;4973074;28;20554;-85
2023/07/22 08:13:06;;;;;;;7.80;4.38;;;20.60;99.90;;;;;;4961065;28;20050;-85
2023/07/22 08:15:32;;;;;;;9.98;5.15;;;20.30;99.90;;;;;;4971927;28;20134;-85
2023/07/22 08:17:58;;;;;;;6.88;4.55;;;20.00;99.90;;;;;;4973838;28;20046;-85
2023/07/22 08:20:24;;;;;;;5.63;4.30;;;20.10;99.90;;;;;;4958441;28;20035;-86
2023/07/22 08:22:50;;;;;;;7.05;4.80;;;19.90;99.90;;;;;;4975132;28;20180;-85
2023/07/22 08:25:15;;;;;;;6.63;4.50;;;20.10;99.90;;;;;;4972937;28;20054;-86
2023/07/22 08:27:41;;;;;;;6.00;4.20;;;20.10;99.90;;;;;;4974095;28;20042;-86
2023/07/22 08:30:07;;;;;;;9.35;4.70;;;20.10;99.90;;;;;;4958729;28;20038;-86
2023/07/22 08:32:33;;;;;;;5.82;4.05;;;19.90;99.90;;;;;;4976474;28;20125;-86
2023/07/22 08:34:59;;;;;;;6.15;3.65;;;20.10;99.90;;;;;;4955320;28;20130;-87
2023/07/22 08:37:25;;;;;;;6.90;4.97;;;20.30;99.90;;;;;;4975314;28;20089;-83
2023/07/22 08:39:51;;;;;;;8.32;4.78;;;20.30;99.90;;;;;;4973259;28;20100;-87
2023/07/22 08:42:19;;;;;;;7.50;5.43;;;20.20;99.90;;;;;;4957999;28;20121;-83
2023/07/22 08:44:48;;;;;;;7.13;4.20;;;19.90;99.90;;;;;;4969349;28;20050;-85
2023/07/22 08:47:17;;;;;;;6.35;4.78;;;20.00;99.90;;;;;;4974157;28;20506;-83
2023/07/22 08:49:49;;;;;;;7.85;5.10;;;20.00;99.90;;;;;;4954724;28;20397;-86
2023/07/22 08:52:15;;;;;;;7.22;5.03;;;20.10;99.90;;;;;;4989317;28;20066;-85
2023/07/22 08:54:42;;;;;;;5.90;4.28;;;20.10;99.90;;;;;;4957217;28;20066;-86
2023/07/22 08:57:10;;;;;;;6.75;4.43;;;20.30;99.90;;;;;;4956671;28;20030;-86
2023/07/22 08:59:37;;;;;;;7.50;5.07;;;20.40;99.90;;;;;;4966292;28;20383;-88
2023/07/22 09:02:03;;;;;;;7.05;4.57;;;20.50;99.90;;;;;;4992079;28;20117;-86
2023/07/22 09:04:29;;;;;;;7.57;4.70;;;20.70;99.90;;;;;;4971585;28;20077;-86
2023/07/22 09:06:56;;;;;;;4.97;3.65;;;20.60;99.90;;;;;;4977472;28;20053;-86
2023/07/22 09:09:22;;;;;;;6.28;4.35;;;20.80;99.90;;;;;;4956539;28;20042;-87
2023/07/22 09:11:49;;;;;;;6.63;4.28;;;20.70;99.90;;;;;;4987638;28;20065;-83
2023/07/22 09:14:21;;;;;;;7.53;4.50;;;20.50;99.90;;;;;;4968057;28;20042;-86
2023/07/22 09:16:47;;;;;;;6.47;3.85;;;20.60;99.90;;;;;;4957864;28;20089;-90
2023/07/22 09:19:13;;;;;;;9.75;6.82;;;20.70;99.90;;;;;;4966521;28;20042;-89
2023/07/22 09:21:39;;;;;;;8.48;5.47;;;20.20;99.90;;;;;;4945271;28;20040;-89
2023/07/22 09:24:27;;;;;;;6.20;3.80;;;20.60;99.90;;;;;;4948471;28;20413;-88
2023/07/22 09:26:54;;;;;;;8.07;5.40;;;21.00;99.90;;;;;;4948395;28;20590;-89
2023/07/22 09:29:36;;;;;;;9.25;5.18;;;20.70;99.90;;;;;;4979784;28;20093;-88
2023/07/22 09:32:03;;;;;;;7.57;4.45;;;20.80;99.90;;;;;;4961604;28;20053;-90
2023/07/22 09:34:29;;;;;;;6.63;4.30;;;20.80;99.90;;;;;;4944736;28;20077;-85
2023/07/22 09:36:57;;;;;;;6.65;4.95;;;21.10;99.90;;;;;;4943375;28;20034;-85
2023/07/22 09:39:24;;;;;;;7.85;4.97;;;21.10;99.90;;;;;;4947865;28;20042;-83
2023/07/22 09:41:52;;;;;;;7.30;4.93;;;20.90;99.90;;;;;;4947727;28;20083;-86
2023/07/22 09:44:18;;;;;;;6.13;3.17;;;20.70;99.90;;;;;;4964737;28;20619;-86
2023/07/22 09:46:50;;;;;;;6.45;3.10;;;20.60;99.90;;;;;;4981151;28;20055;-89
2023/07/22 09:49:18;;;;;;;6.00;2.88;;;20.50;99.90;;;;;;4947514;28;20065;-89
2023/07/22 09:51:44;;;;;;;3.03;1.98;;;20.40;99.90;;;;;;4965822;28;20137;-89
2023/07/22 09:54:10;;;;;;;4.82;2.00;;;20.50;99.90;;;;;;4950075;28;20069;-88
2023/07/22 09:56:47;;;;;;;4.63;2.15;;;20.30;99.90;;;;;;4983235;28;20101;-88
2023/07/22 09:59:13;;;;;;;4.57;1.88;;;20.30;99.90;;;;;;4949221;28;20108;-88
2023/07/22 10:01:41;;;;;;;2.70;1.23;;;20.50;99.90;;;;;;4949701;28;20038;-84
2023/07/22 10:04:07;;;;;;;7.07;2.47;;;20.40;99.90;;;;;;4946835;28;20498;-84
2023/07/22 10:06:34;;;;;;;4.07;2.22;;;20.10;99.90;;;;;;4957691;28;20046;-85
2023/07/22 10:09:07;;;;;;;5.05;2.22;;;20.20;99.90;;;;;;4964678;28;20042;-88
2023/07/22 10:11:34;;;;;;;3.80;1.52;;;20.40;99.90;;;;;;4949072;28;20046;-87
2023/07/22 10:14:04;;;;;;;6.32;3.40;;;20.70;99.90;;;;;;4946990;28;20387;-84
2023/07/22 10:16:31;;;;;;;4.18;1.88;;;20.20;99.90;;;;;;4980596;28;20051;-83
2023/07/22 10:18:58;;;;;;;5.10;1.40;;;20.40;99.90;;;;;;4947720;28;20042;-89
2023/07/22 10:21:25;;;;;;;3.65;1.45;;;20.40;99.90;;;;;;4981972;28;20053;-85
2023/07/22 10:23:51;;;;;;;3.67;1.40;;;20.40;99.90;;;;;;4964238;28;20065;-89
2023/07/22 10:26:18;;;;;;;3.72;1.10;;;20.40;99.90;;;;;;4963264;28;20523;-87
2023/07/22 10:28:46;;;;;;;1.95;0.95;;;20.70;99.90;;;;;;4986181;28;20050;-86
2023/07/22 10:31:13;;;;;;;2.17;1.00;;;20.90;99.90;;;;;;4967270;28;20121;-87
2023/07/22 10:33:39;;;;;;;4.28;1.90;;;20.80;99.90;;;;;;4964381;28;20758;-86
2023/07/22 10:36:13;;;;;;;4.35;1.38;;;20.20;99.90;;;;;;4980619;28;20117;-88
2023/07/22 10:38:39;;;;;;;1.88;0.98;;;20.60;99.90;;;;;;4949480;28;20046;-88
2023/07/22 10:41:19;;;;;;;2.95;1.10;;;21.00;99.90;;;;;;4964000;28;20069;-88
2023/07/22 10:43:59;;;;;;;6.63;1.95;;;21.40;99.90;;;;;;4963055;28;20161;-88
2023/07/22 10:46:34;;;;;;;4.40;1.45;;;20.70;99.90;;;;;;4945808;28;20466;-90
2023/07/22 10:49:15;;;;;;;3.65;1.10;;;20.80;99.90;;;;;;4948393;28;20108;-87
2023/07/22 10:51:50;;;;;;;3.03;1.08;;;20.50;99.90;;;;;;4964373;28;20049;-87
2023/07/22 10:54:36;;;;;;;4.30;1.20;;;20.60;99.90;;;;;;4964000;28;20054;-88
2023/07/22 10:57:26;;;;;;;4.97;1.10;;;20.30;99.90;;;;;;4951059;28;20030;-90
2023/07/22 10:59:55;;;;;;;3.58;0.90;;;20.50;99.90;;;;;;4976070;28;20200;-88
2023/07/22 11:02:25;;;;;;;2.05;0.70;;;20.80;99.90;;;;;;4982368;28;20045;-89
2023/07/22 11:04:51;;;;;;;1.92;0.70;;;21.10;99.90;;;;;;4971816;28;20038;-82
2023/07/22 11:07:30;;;;;;;2.65;0.80;;;21.40;99.90;;;;;;4974640;28;20372;-87
2023/07/22 11:09:57;;;;;;;2.55;0.90;;;21.70;99.90;;;;;;4953495;28;20398;-88
2023/07/22 11:12:25;;;;;;;2.33;0.70;;;21.40;99.90;;;;;;4971490;28;20052;-85
2023/07/22 11:15:01;;;;;;;1.63;0.70;;;22.10;99.90;;;;;;4965538;28;20046;-88
2023/07/22 11:17:32;;;;;;;2.40;0.80;;;22.30;99.90;;;;;;4950891;28;20038;-87
2023/07/22 11:19:59;;;;;;;5.13;0.75;;;22.30;99.90;;;;;;4958060;28;20042;-86
2023/07/22 11:22:25;;;;;;;3.63;0.90;;;22.80;99.90;;;;;;4950919;28;20476;-88
2023/07/22 11:24:52;;;;;;;3.85;0.95;;;22.60;99.90;;;;;;4974255;28;20137;-85
2023/07/22 11:27:19;;;;;;;4.07;0.90;;;22.70;99.90;;;;;;4947453;28;20081;-89
2023/07/22 11:29:45;;;;;;;2.38;0.65;;;23.00;99.90;;;;;;4988576;28;20045;-88
2023/07/22 11:32:16;;;;;;;2.17;0.85;;;23.00;99.90;;;;;;4954173;28;20558;-89
2023/07/22 11:34:44;;;;;;;2.50;1.13;;;22.30;99.90;;;;;;4954598;28;20073;-87
2023/07/22 11:37:10;;;;;;;3.00;0.77;;;21.80;99.90;;;;;;4954535;28;20081;-88
2023/07/22 11:39:36;;;;;;;2.72;0.80;;;22.10;99.90;;;;;;4971015;28;20034;-83
2023/07/22 11:42:03;;;;;;;3.30;0.90;;;22.00;99.90;;;;;;4957408;28;20474;-88
2023/07/22 11:44:30;;;;;;;1.98;0.60;;;22.10;99.90;;;;;;4973355;28;20137;-87
2023/07/22 11:46:59;;;;;;;4.25;1.10;;;22.60;99.90;;;;;;4985578;28;20049;-86
2023/07/22 11:49:29;;;;;;;3.10;0.97;;;21.90;99.90;;;;;;4963159;28;20084;-85
2023/07/22 11:51:59;;;;;;;2.03;1.00;;;21.70;99.90;;;;;;4966779;28;20200;-86
2023/07/22 11:54:26;;;;;;;2.00;0.80;;;21.30;99.90;;;;;;4979041;28;20565;-87
2023/07/22 11:56:52;;;;;;;2.75;0.70;;;21.30;99.90;;;;;;4947630;28;20034;-87
2023/07/22 11:59:33;;;;;;;2.47;0.68;;;21.40;99.90;;;;;;4966280;28;20049;-84
2023/07/22 12:02:01;;;;;;;1.35;0.45;;;21.80;99.90;;;;;;4962590;28;20062;-87
2023/07/22 12:04:27;;;;;;;1.33;0.50;;;22.10;99.90;;;;;;4969654;28;20177;-87
2023/07/22 12:06:53;;;;;;;2.25;0.60;;;22.50;99.90;;;;;;4940930;28;20058;-86
2023/07/22 12:09:20;;;;;;;1.70;0.50;;;21.90;99.90;;;;;;4955965;28;20038;-86
2023/07/22 12:11:49;;;;;;;3.70;0.60;;;22.10;99.90;;;;;;4978662;28;20395;-86
2023/07/22 12:14:15;;;;;;;2.50;0.75;;;22.00;99.90;;;;;;4945877;28;20545;-86
2023/07/22 12:16:42;;;;;;;2.05;0.45;;;21.90;99.90;;;;;;4967322;28;20039;-89
2023/07/22 12:19:09;;;;;;;1.10;0.47;;;21.90;99.90;;;;;;4966383;28;20110;-81
2023/07/22 12:21:36;;;;;;;2.50;0.60;;;22.10;99.90;;;;;;4961365;28;20030;-88
2023/07/22 12:24:04;;;;;;;1.30;0.50;;;22.10;99.90;;;;;;4968301;28;20515;-88
2023/07/22 12:26:30;;;;;;;2.72;0.52;;;22.30;99.90;;;;;;4958644;28;20034;-88
2023/07/22 12:28:56;;;;;;;1.33;0.40;;;22.50;99.90;;;;;;4968356;28;20043;-88
2023/07/22 12:31:22;;;;;;;2.30;0.40;;;22.90;99.90;;;;;;4967025;28;20418;-86
2023/07/22 12:33:49;;;;;;;2.53;0.40;;;23.60;99.90;;;;;;4951690;28;20089;-87
2023/07/22 12:36:16;;;;;;;3.00;0.40;;;23.80;99.90;;;;;;4944667;28;20041;-88
2023/07/22 12:38:42;;;;;;;1.67;0.40;;;23.70;99.90;;;;;;4976037;28;20042;-86
2023/07/22 12:41:09;;;;;;;4.18;0.60;;;23.20;99.90;;;;;;4949860;28;20054;-87
2023/07/22 12:43:35;;;;;;;1.48;0.40;;;23.20;99.90;;;;;;4960938;28;20050;-89
2023/07/22 12:46:01;;;;;;;1.48;0.40;;;23.40;99.90;;;;;;4974507;28;20387;-89